createdAt,value
2023-04-15T00:01:43.840Z,9.50
2023-04-15T00:04:18.658Z,9.50
2023-04-15T00:07:05.379Z,9.60
2023-04-15T00:09:42.426Z,9.50
2023-04-15T00:12:38.316Z,9.60
2023-04-15T00:15:39.988Z,9.80
2023-04-15T00:37:17.787Z,9.60
2023-04-15T01:02:20.676Z,9.50
2023-04-15T01:05:21.735Z,9.70
2023-04-15T01:25:21.760Z,9.80
2023-04-15T01:27:54.910Z,9.80
2023-04-15T01:30:39.769Z,9.90
2023-04-15T01:33:08.839Z,9.90
2023-04-15T01:35:49.477Z,9.90
2023-04-15T01:38:21.710Z,9.90
2023-04-15T01:40:54.199Z,9.90
2023-04-15T01:43:28.931Z,9.90
2023-04-15T01:46:00.896Z,9.90
2023-04-15T01:48:41.332Z,10.00
2023-04-15T01:51:13.290Z,10.00
2023-04-15T01:58:19.929Z,9.90
2023-04-15T02:09:24.209Z,9.70
2023-04-15T02:15:58.069Z,9.80
2023-04-15T02:54:16.879Z,9.80
2023-04-15T03:51:04.014Z,9.90
2023-04-15T03:53:54.631Z,9.70
2023-04-15T03:59:55.454Z,9.90
2023-04-15T04:06:03.997Z,9.80
2023-04-15T04:12:37.186Z,9.90
2023-04-15T04:16:05.341Z,10.00
2023-04-15T04:32:23.203Z,9.90
2023-04-15T04:35:44.278Z,9.90
2023-04-15T04:39:11.375Z,10.00
2023-04-15T04:48:37.837Z,9.90
2023-04-15T04:51:26.553Z,9.90
2023-04-15T04:57:50.045Z,9.90
2023-04-15T05:00:28.169Z,10.00
2023-04-15T05:03:07.756Z,10.10
2023-04-15T05:08:49.219Z,10.20
2023-04-15T05:11:34.730Z,10.20
2023-04-15T05:14:40.452Z,10.20
2023-04-15T05:20:26.686Z,10.20
2023-04-15T05:23:17.184Z,10.30
2023-04-15T05:26:05.435Z,10.30
2023-04-15T05:29:01.757Z,10.30
2023-04-15T05:31:54.409Z,10.30
2023-04-15T05:34:34.525Z,10.40
2023-04-15T05:37:13.577Z,10.40
2023-04-15T05:39:51.840Z,10.40
2023-04-15T05:45:44.755Z,10.50
2023-04-15T05:48:34.586Z,10.40
2023-04-15T05:54:43.632Z,10.60
2023-04-15T06:00:06.597Z,10.70
2023-04-15T06:02:57.633Z,10.80
2023-04-15T06:14:03.371Z,10.90
2023-04-15T06:16:42.237Z,10.90
2023-04-15T06:19:21.928Z,10.90
2023-04-15T06:21:53.823Z,10.90
2023-04-15T06:24:22.695Z,10.90
2023-04-15T06:26:52.716Z,10.90
2023-04-15T06:29:23.410Z,10.90
2023-04-15T06:31:57.926Z,10.90
2023-04-15T06:34:33.658Z,10.90
2023-04-15T06:37:05.776Z,10.90
2023-04-15T06:39:35.104Z,10.90
2023-04-15T06:42:04.869Z,10.90
2023-04-15T06:45:25.773Z,10.80
2023-04-15T06:48:14.407Z,10.90
2023-04-15T06:54:36.972Z,11.20
2023-04-15T06:57:38.972Z,11.20
2023-04-15T07:03:40.514Z,11.10
2023-04-15T07:15:22.311Z,11.30
2023-04-15T07:20:49.976Z,11.40
2023-04-15T07:27:03.536Z,11.50
2023-04-15T07:41:40.384Z,11.70
2023-04-15T07:44:20.640Z,11.80
2023-04-15T08:03:31.360Z,12.00
2023-04-15T08:06:12.796Z,12.10
2023-04-15T08:19:23.992Z,12.80
2023-04-15T08:28:42.210Z,13.30
2023-04-15T08:31:20.785Z,13.00
2023-04-15T08:38:24.394Z,13.50
2023-04-15T08:41:35.711Z,13.50
2023-04-15T08:52:28.809Z,13.70
2023-04-15T08:57:48.261Z,13.60
2023-04-15T09:00:44.223Z,13.80
2023-04-15T09:03:24.402Z,13.70
2023-04-15T09:06:40.080Z,13.60
2023-04-15T09:09:41.193Z,13.40
2023-04-15T09:12:38.566Z,13.40
2023-04-15T09:15:46.283Z,13.20
2023-04-15T09:18:59.568Z,13.10
2023-04-15T09:22:08.577Z,12.90
2023-04-15T09:24:56.925Z,12.90
2023-04-15T09:27:43.219Z,12.80
2023-04-15T09:30:49.918Z,12.80
2023-04-15T09:33:29.579Z,12.70
2023-04-15T09:36:10.920Z,12.90
2023-04-15T09:39:07.893Z,12.50
2023-04-15T09:41:56.964Z,12.50
2023-04-15T09:48:08.924Z,12.40
2023-04-15T09:54:33.129Z,12.30
2023-04-15T09:57:41.157Z,12.20
2023-04-15T10:01:00.897Z,12.20
2023-04-15T10:03:51.296Z,12.20
2023-04-15T10:24:40.312Z,12.10
2023-04-15T10:27:30.031Z,12.20
2023-04-15T10:30:28.496Z,12.20
2023-04-15T10:33:18.328Z,12.20
2023-04-15T10:36:04.003Z,12.20
2023-04-15T10:38:57.549Z,12.20
2023-04-15T10:41:41.616Z,12.30
2023-04-15T10:44:44.512Z,12.30
2023-04-15T10:47:40.264Z,12.40
2023-04-15T10:50:14.956Z,12.60
2023-04-15T10:52:48.908Z,12.40
2023-04-15T10:55:28.339Z,12.40
2023-04-15T11:06:34.811Z,13.00
2023-04-15T11:09:34.307Z,12.80
2023-04-15T11:12:31.372Z,12.90
2023-04-15T13:05:15.570Z,14.20
2023-04-15T13:07:48.867Z,14.20
2023-04-15T13:10:19.477Z,14.30
2023-04-15T13:13:05.921Z,14.30
2023-04-15T13:24:52.298Z,14.50
2023-04-15T13:40:36.481Z,14.90
2023-04-15T13:43:23.514Z,15.00
2023-04-15T13:47:18.796Z,15.30
2023-04-15T13:49:44.816Z,15.50
2023-04-15T13:52:13.110Z,15.60
2023-04-15T13:54:41.723Z,15.90
2023-04-15T13:57:10.087Z,16.20
2023-04-15T13:59:38.349Z,16.30
2023-04-15T14:02:08.891Z,16.40
2023-04-15T14:04:37.108Z,16.50
2023-04-15T14:07:06.979Z,16.50
2023-04-15T14:09:55.290Z,16.40
2023-04-15T14:12:43.298Z,16.30
2023-04-15T14:15:36.605Z,16.30
2023-04-15T14:18:04.849Z,16.30
2023-04-15T14:20:33.316Z,16.20
2023-04-15T14:23:03.126Z,16.10
2023-04-15T14:25:34.113Z,16.10
2023-04-15T14:28:03.453Z,16.20
2023-04-15T14:30:32.689Z,16.20
2023-04-15T14:33:01.098Z,16.20
2023-04-15T14:35:29.388Z,16.30
2023-04-15T14:37:57.744Z,16.20
2023-04-15T15:28:46.431Z,16.70
2023-04-15T15:31:47.293Z,16.70
2023-04-15T16:24:00.106Z,16.00
2023-04-15T16:26:42.335Z,15.90
2023-04-15T16:30:32.365Z,15.90
2023-04-15T16:33:09.673Z,15.90
2023-04-15T16:36:12.609Z,15.70
2023-04-15T16:42:58.035Z,15.70
2023-04-15T16:49:59.689Z,15.50
2023-04-15T16:56:28.067Z,15.20
2023-04-15T17:54:30.471Z,14.20
2023-04-15T18:13:50.963Z,13.90
2023-04-15T18:16:43.043Z,13.90
2023-04-15T18:30:59.602Z,13.50
2023-04-15T18:33:34.020Z,13.50
2023-04-15T18:41:04.040Z,13.40
2023-04-15T19:30:44.383Z,12.70
2023-04-15T19:35:09.940Z,12.60
2023-04-15T19:39:36.655Z,12.50
2023-04-15T20:00:23.444Z,12.30
2023-04-15T20:03:30.379Z,12.30
2023-04-15T20:14:48.764Z,12.20
2023-04-15T20:18:46.223Z,12.10
2023-04-15T20:21:06.329Z,12.10
2023-04-15T20:23:37.311Z,12.10
2023-04-15T20:26:18.276Z,12.00
2023-04-15T20:29:11.185Z,11.90
2023-04-15T20:39:41.746Z,11.80
2023-04-15T20:43:00.029Z,11.90
2023-04-15T20:46:32.566Z,11.40
2023-04-15T20:49:39.667Z,11.50
2023-04-15T20:56:33.836Z,11.50
2023-04-15T20:59:16.219Z,11.40
2023-04-15T21:05:38.131Z,11.30
2023-04-15T21:08:10.704Z,11.40
2023-04-15T21:10:48.921Z,11.30
2023-04-15T21:13:17.778Z,11.30
2023-04-15T21:15:51.810Z,11.30
2023-04-15T21:18:22.809Z,11.20
2023-04-15T21:20:59.124Z,11.20
2023-04-15T21:23:28.865Z,11.20
2023-04-15T21:25:57.516Z,11.20
2023-04-15T21:28:31.373Z,11.20
2023-04-15T21:31:00.603Z,11.20
2023-04-15T21:33:32.781Z,11.20
2023-04-15T21:36:03.226Z,11.20
2023-04-15T21:38:31.934Z,11.20
2023-04-15T21:41:05.079Z,11.20
2023-04-15T21:43:36.131Z,11.20
2023-04-15T21:46:22.294Z,11.20
2023-04-15T21:48:58.539Z,11.20
2023-04-15T21:51:41.504Z,11.20
2023-04-15T21:54:10.331Z,11.20
2023-04-15T21:56:46.359Z,11.10
2023-04-15T21:59:19.846Z,11.10
2023-04-15T22:01:48.964Z,11.10
2023-04-15T22:04:17.919Z,11.10
2023-04-15T22:07:03.760Z,11.20
2023-04-15T22:09:34.329Z,11.20
2023-04-15T22:12:05.899Z,11.20
2023-04-15T22:14:34.149Z,11.20
2023-04-15T22:17:02.524Z,11.10
2023-04-15T22:19:31.159Z,11.10
2023-04-15T22:22:01.110Z,11.10
2023-04-15T22:24:35.083Z,11.00
2023-04-15T22:27:08.260Z,10.90
2023-04-15T22:29:36.460Z,11.00
2023-04-15T22:32:05.731Z,11.00
2023-04-15T22:34:36.470Z,11.00
2023-04-15T22:37:12.461Z,11.00
2023-04-15T22:39:41.275Z,11.00
2023-04-15T22:42:18.596Z,11.00
2023-04-15T22:44:49.306Z,11.10
2023-04-15T22:47:17.854Z,11.10
2023-04-15T22:49:48.951Z,11.20
2023-04-15T22:52:30.441Z,11.20
2023-04-15T22:55:04.409Z,11.10
2023-04-15T22:57:43.089Z,11.20
2023-04-15T23:00:16.085Z,11.20
2023-04-15T23:02:47.915Z,11.20
2023-04-15T23:05:19.832Z,11.10
2023-04-15T23:07:51.352Z,11.10
2023-04-15T23:10:24.240Z,11.00
2023-04-15T23:12:53.195Z,11.00
2023-04-15T23:15:25.942Z,11.00
2023-04-15T23:17:54.750Z,11.00
2023-04-15T23:20:24.989Z,11.00
2023-04-15T23:23:00.365Z,11.00
2023-04-15T23:25:39.887Z,11.00
2023-04-15T23:28:08.481Z,11.00
2023-04-15T23:30:37.976Z,11.00
2023-04-15T23:33:06.726Z,10.90
2023-04-15T23:35:37.748Z,11.10
2023-04-15T23:38:07.887Z,10.80
2023-04-15T23:40:43.690Z,10.70
2023-04-15T23:43:12.100Z,10.80
2023-04-15T23:45:44.994Z,10.70
2023-04-15T23:48:13.828Z,10.70
2023-04-15T23:50:42.835Z,10.60
2023-04-15T23:53:12.791Z,10.60
2023-04-15T23:55:53.209Z,10.60
2023-04-15T23:58:25.377Z,10.50
